Harbor Heights, Washington
Current Conditions -  °F | °C
As of 7:35 AM on Saturday 20 Dec 2014 (Local Time) from KTCM Reporting Station
Light Rain Light Rain  
Wind Chill: 46°   Ceiling: 4000
Heat Index: 46°   Visibility: 10mi
Dew Point: 45°   Wind: 3mph
Humidity: 93%   Direction: 60°ENE
Pressure: 29.63"   Gusts: NA
Location:  47.0168°N, 122.279°W
Report Text: KTCM 201535Z AUTO 06003KT 10SM -RA OVC040 08/07 A2963 RMK AO2 RAE10RAB22E32RAB35
Loading
Personal Weather Stations






























Interactive Weather Map New forecast layout! Learn more

10-Day Weather Forecast

Advertisements
Track Severe Weather on mobile